메인 페이지
METAR-TAF:

METAR-TAF

공항 :

리버풀 존 레논 공항

리버풀, 잉글랜드

위도: 53-20N, 경도: 002-51W, 고도: 26m

현재 날씨관측

예보는 49분 전, 07:20시(UTC)에 발표되었습니다.
남남서9kt
온도 14°C
습도 88%
기압 996 hPa
시정: 9000m
고도 1300ft 상공 구름 조금
고도 3100ft 상공 구름 보통
고도 3800ft 상공 구름 많음
약한비,

METAR: EGGP 140720Z 20009KT 9999 9000NW -RA FEW013 SCT031 BKN038 14/12 Q0996

시각: 09:09 (08:09 UTC)

예보

예보는 3 시간 12분 전, 04:57시(UTC)에 발표되었습니다.
예보 대상 시간: 14일 06시부터 15일 06시까지 (UTC)
남남서9kt
시정 10km 이상
고도 1500ft 상공 구름 조금
고도 2500ft 상공 구름 보통
일시적
14일 06시부터 15일 06시까지 (UTC)
시정: 6000m
소나기
확률 30% :
일시적
14일 06시부터 14일 08시까지 (UTC)
고도 1400ft 상공 구름 많음
확률 30% :
일시적
14일 08시부터 14일 22시까지 (UTC)
시정: 4000m
고도 1400ft 상공 구름 많음
고도 2500ft 상공 구름 많음, 적란운.
강한소나기
전환 중
14일 09시부터 14일 12시까지 (UTC)
북서10kt
전환 중
14일 16시부터 14일 19시까지 (UTC)
6kt

TAF: EGGP 140457Z 1406/1506 21009KT 9999 FEW015 SCT025 TEMPO 1406/1506 6000 SHRA PROB30 TEMPO 1406/1408 BKN014 PROB30 TEMPO 1408/1422 4000 +SHRA BKN014 BKN025CB BECMG 1409/1412 31010KT BECMG 1416/1419 18006KT

4,000개 이상의 공항 관측 자료 및 예보 (METAR 및 TAF 보고).

지도상에서 검색 가능한 기상관측소가 노란 점과 빨간 점으로 표시되어 있습니다.

기상관측소 명을 보려면 표시 위로 마우스를 이동하세요.

날씨 관측과 예보를 보려면 클릭하세요.

지도 변경 : 확대하려면 엑스 표시가 있는 녹색 버튼, 축소하려면 빼기 표시가 있는 녹색 버튼, 다음 페이지의 지도를 보려면 녹색 화살표를 클릭하세요.


METAR-TAF: